sensor_id;sensor_type;location;lat;lon;timestamp;P1;durP1;ratioP1;P2;durP2;ratioP2
40595;SDS011;26304;48.794;9.820;2023-08-30T00:02:19;5.47;;;5.07;;
40595;SDS011;26304;48.794;9.820;2023-08-30T00:04:41;5.72;;;5.13;;
40595;SDS011;26304;48.794;9.820;2023-08-30T00:07:05;5.63;;;5.22;;
40595;SDS011;26304;48.794;9.820;2023-08-30T00:09:27;5.00;;;4.70;;
40595;SDS011;26304;48.794;9.820;2023-08-30T00:11:50;5.18;;;4.88;;
40595;SDS011;26304;48.794;9.820;2023-08-30T00:14:12;6.03;;;5.45;;
40595;SDS011;26304;48.794;9.820;2023-08-30T00:16:35;5.43;;;5.13;;
40595;SDS011;26304;48.794;9.820;2023-08-30T00:18:59;5.40;;;5.07;;
40595;SDS011;26304;48.794;9.820;2023-08-30T00:21:21;5.28;;;4.97;;
40595;SDS011;26304;48.794;9.820;2023-08-30T00:23:45;4.97;;;4.57;;
40595;SDS011;26304;48.794;9.820;2023-08-30T00:26:08;5.20;;;4.90;;
40595;SDS011;26304;48.794;9.820;2023-08-30T00:28:30;5.35;;;4.95;;
40595;SDS011;26304;48.794;9.820;2023-08-30T00:30:53;4.90;;;4.60;;
40595;SDS011;26304;48.794;9.820;2023-08-30T00:33:16;5.57;;;5.18;;
40595;SDS011;26304;48.794;9.820;2023-08-30T00:35:38;5.78;;;5.38;;
40595;SDS011;26304;48.794;9.820;2023-08-30T00:38:01;5.57;;;5.13;;
40595;SDS011;26304;48.794;9.820;2023-08-30T00:40:25;5.32;;;5.03;;
40595;SDS011;26304;48.794;9.820;2023-08-30T00:42:47;5.30;;;4.90;;
40595;SDS011;26304;48.794;9.820;2023-08-30T00:45:10;5.47;;;5.15;;
40595;SDS011;26304;48.794;9.820;2023-08-30T00:47:32;5.40;;;5.10;;
40595;SDS011;26304;48.794;9.820;2023-08-30T00:49:55;5.45;;;5.10;;
40595;SDS011;26304;48.794;9.820;2023-08-30T00:52:17;5.18;;;4.88;;
40595;SDS011;26304;48.794;9.820;2023-08-30T00:54:40;5.00;;;4.60;;
40595;SDS011;26304;48.794;9.820;2023-08-30T00:57:04;5.10;;;4.80;;
40595;SDS011;26304;48.794;9.820;2023-08-30T00:59:28;5.60;;;5.20;;
40595;SDS011;26304;48.794;9.820;2023-08-30T01:01:54;5.25;;;4.85;;
40595;SDS011;26304;48.794;9.820;2023-08-30T01:04:18;5.57;;;5.07;;
40595;SDS011;26304;48.794;9.820;2023-08-30T01:06:40;4.72;;;4.32;;
40595;SDS011;26304;48.794;9.820;2023-08-30T01:09:03;6.03;;;5.63;;
40595;SDS011;26304;48.794;9.820;2023-08-30T01:11:29;5.10;;;4.80;;
40595;SDS011;26304;48.794;9.820;2023-08-30T01:14:00;5.03;;;4.63;;
40595;SDS011;26304;48.794;9.820;2023-08-30T01:16:27;4.78;;;4.47;;
40595;SDS011;26304;48.794;9.820;2023-08-30T01:18:50;4.55;;;4.20;;
40595;SDS011;26304;48.794;9.820;2023-08-30T01:21:27;4.70;;;4.40;;
40595;SDS011;26304;48.794;9.820;2023-08-30T01:23:58;5.38;;;5.07;;
40595;SDS011;26304;48.794;9.820;2023-08-30T01:26:23;4.95;;;4.57;;
40595;SDS011;26304;48.794;9.820;2023-08-30T01:28:57;4.85;;;4.55;;
40595;SDS011;26304;48.794;9.820;2023-08-30T01:31:23;4.88;;;4.55;;
40595;SDS011;26304;48.794;9.820;2023-08-30T01:33:47;4.68;;;4.35;;
40595;SDS011;26304;48.794;9.820;2023-08-30T01:36:11;4.57;;;4.28;;
40595;SDS011;26304;48.794;9.820;2023-08-30T01:38:35;4.28;;;3.97;;
40595;SDS011;26304;48.794;9.820;2023-08-30T01:40:58;4.72;;;4.15;;
40595;SDS011;26304;48.794;9.820;2023-08-30T01:43:22;4.18;;;3.92;;
40595;SDS011;26304;48.794;9.820;2023-08-30T01:45:48;4.50;;;4.10;;
40595;SDS011;26304;48.794;9.820;2023-08-30T01:48:12;4.63;;;4.32;;
40595;SDS011;26304;48.794;9.820;2023-08-30T01:50:36;4.53;;;4.20;;
40595;SDS011;26304;48.794;9.820;2023-08-30T01:53:00;4.90;;;4.60;;
40595;SDS011;26304;48.794;9.820;2023-08-30T01:55:24;4.55;;;4.25;;
40595;SDS011;26304;48.794;9.820;2023-08-30T01:57:48;4.38;;;4.10;;
40595;SDS011;26304;48.794;9.820;2023-08-30T02:00:11;4.72;;;4.32;;
40595;SDS011;26304;48.794;9.820;2023-08-30T02:02:36;4.72;;;4.43;;
40595;SDS011;26304;48.794;9.820;2023-08-30T02:04:58;4.38;;;4.10;;
40595;SDS011;26304;48.794;9.820;2023-08-30T02:07:22;4.65;;;4.35;;
40595;SDS011;26304;48.794;9.820;2023-08-30T02:09:52;4.15;;;3.90;;
40595;SDS011;26304;48.794;9.820;2023-08-30T02:12:19;4.80;;;4.50;;
40595;SDS011;26304;48.794;9.820;2023-08-30T02:14:47;4.78;;;4.40;;
40595;SDS011;26304;48.794;9.820;2023-08-30T02:17:11;4.65;;;4.35;;
40595;SDS011;26304;48.794;9.820;2023-08-30T02:19:35;4.70;;;4.40;;
40595;SDS011;26304;48.794;9.820;2023-08-30T02:21:58;4.50;;;4.10;;
40595;SDS011;26304;48.794;9.820;2023-08-30T02:24:21;4.65;;;4.35;;
40595;SDS011;26304;48.794;9.820;2023-08-30T02:26:43;4.95;;;4.65;;
40595;SDS011;26304;48.794;9.820;2023-08-30T02:29:06;4.05;;;3.85;;
40595;SDS011;26304;48.794;9.820;2023-08-30T02:31:29;4.22;;;3.92;;
40595;SDS011;26304;48.794;9.820;2023-08-30T02:33:51;4.90;;;4.50;;
40595;SDS011;26304;48.794;9.820;2023-08-30T02:36:15;4.85;;;4.45;;
40595;SDS011;26304;48.794;9.820;2023-08-30T02:38:37;3.78;;;3.58;;
40595;SDS011;26304;48.794;9.820;2023-08-30T02:41:00;4.60;;;4.30;;
40595;SDS011;26304;48.794;9.820;2023-08-30T02:43:22;4.13;;;3.92;;
40595;SDS011;26304;48.794;9.820;2023-08-30T02:45:44;4.05;;;3.83;;
40595;SDS011;26304;48.794;9.820;2023-08-30T02:48:07;4.43;;;4.20;;
40595;SDS011;26304;48.794;9.820;2023-08-30T02:50:29;4.53;;;4.22;;
40595;SDS011;26304;48.794;9.820;2023-08-30T02:52:53;4.60;;;4.30;;
40595;SDS011;26304;48.794;9.820;2023-08-30T02:55:15;4.82;;;4.43;;
40595;SDS011;26304;48.794;9.820;2023-08-30T02:57:38;4.50;;;4.20;;
40595;SDS011;26304;48.794;9.820;2023-08-30T03:00:00;4.30;;;4.07;;
40595;SDS011;26304;48.794;9.820;2023-08-30T03:02:26;4.72;;;4.43;;
40595;SDS011;26304;48.794;9.820;2023-08-30T03:04:49;4.10;;;3.90;;
40595;SDS011;26304;48.794;9.820;2023-08-30T03:07:12;4.45;;;4.15;;
40595;SDS011;26304;48.794;9.820;2023-08-30T03:09:35;4.38;;;4.07;;
40595;SDS011;26304;48.794;9.820;2023-08-30T03:11:59;4.43;;;4.10;;
40595;SDS011;26304;48.794;9.820;2023-08-30T03:14:21;5.05;;;4.65;;
40595;SDS011;26304;48.794;9.820;2023-08-30T03:16:44;5.10;;;4.80;;
40595;SDS011;26304;48.794;9.820;2023-08-30T03:19:08;4.75;;;4.35;;
40595;SDS011;26304;48.794;9.820;2023-08-30T03:21:30;5.18;;;4.78;;
40595;SDS011;26304;48.794;9.820;2023-08-30T03:23:52;5.20;;;4.28;;
40595;SDS011;26304;48.794;9.820;2023-08-30T03:26:16;5.57;;;5.03;;
40595;SDS011;26304;48.794;9.820;2023-08-30T03:28:39;8.70;;;5.18;;
40595;SDS011;26304;48.794;9.820;2023-08-30T03:31:02;4.30;;;3.83;;
40595;SDS011;26304;48.794;9.820;2023-08-30T03:33:32;4.72;;;4.32;;
40595;SDS011;26304;48.794;9.820;2023-08-30T03:35:57;4.65;;;4.32;;
40595;SDS011;26304;48.794;9.820;2023-08-30T03:38:20;4.53;;;4.22;;
40595;SDS011;26304;48.794;9.820;2023-08-30T03:40:42;4.68;;;4.38;;
40595;SDS011;26304;48.794;9.820;2023-08-30T03:43:06;4.45;;;4.15;;
40595;SDS011;26304;48.794;9.820;2023-08-30T03:45:28;4.20;;;3.90;;
40595;SDS011;26304;48.794;9.820;2023-08-30T03:47:51;4.75;;;4.35;;
40595;SDS011;26304;48.794;9.820;2023-08-30T03:50:13;4.43;;;4.13;;
40595;SDS011;26304;48.794;9.820;2023-08-30T03:52:36;4.85;;;4.47;;
40595;SDS011;26304;48.794;9.820;2023-08-30T03:54:58;4.25;;;4.05;;
40595;SDS011;26304;48.794;9.820;2023-08-30T03:57:21;12.18;;;4.80;;
40595;SDS011;26304;48.794;9.820;2023-08-30T03:59:45;4.30;;;4.10;;
40595;SDS011;26304;48.794;9.820;2023-08-30T04:02:08;4.97;;;4.57;;
40595;SDS011;26304;48.794;9.820;2023-08-30T04:04:30;4.82;;;4.53;;
40595;SDS011;26304;48.794;9.820;2023-08-30T04:06:52;4.50;;;4.20;;
40595;SDS011;26304;48.794;9.820;2023-08-30T04:09:15;4.70;;;4.28;;
40595;SDS011;26304;48.794;9.820;2023-08-30T04:11:37;5.20;;;4.70;;
40595;SDS011;26304;48.794;9.820;2023-08-30T04:14:00;4.72;;;4.43;;
40595;SDS011;26304;48.794;9.820;2023-08-30T04:16:24;4.78;;;4.45;;
40595;SDS011;26304;48.794;9.820;2023-08-30T04:18:46;4.70;;;4.30;;
40595;SDS011;26304;48.794;9.820;2023-08-30T04:21:09;4.68;;;4.38;;
40595;SDS011;26304;48.794;9.820;2023-08-30T04:23:31;5.53;;;4.63;;
40595;SDS011;26304;48.794;9.820;2023-08-30T04:25:54;5.82;;;4.30;;
40595;SDS011;26304;48.794;9.820;2023-08-30T04:28:17;4.55;;;4.20;;
40595;SDS011;26304;48.794;9.820;2023-08-30T04:30:39;5.10;;;4.80;;
40595;SDS011;26304;48.794;9.820;2023-08-30T04:33:03;4.10;;;3.88;;
40595;SDS011;26304;48.794;9.820;2023-08-30T04:35:26;5.00;;;4.43;;
40595;SDS011;26304;48.794;9.820;2023-08-30T04:37:48;4.63;;;4.22;;
40595;SDS011;26304;48.794;9.820;2023-08-30T04:40:11;4.57;;;4.18;;
40595;SDS011;26304;48.794;9.820;2023-08-30T04:42:33;6.68;;;4.35;;
40595;SDS011;26304;48.794;9.820;2023-08-30T04:44:56;5.70;;;3.83;;
40595;SDS011;26304;48.794;9.820;2023-08-30T04:47:21;3.95;;;3.75;;
40595;SDS011;26304;48.794;9.820;2023-08-30T04:49:49;5.45;;;3.63;;
40595;SDS011;26304;48.794;9.820;2023-08-30T04:52:12;3.95;;;3.63;;
40595;SDS011;26304;48.794;9.820;2023-08-30T04:54:34;3.97;;;3.35;;
40595;SDS011;26304;48.794;9.820;2023-08-30T04:56:56;3.40;;;3.20;;
40595;SDS011;26304;48.794;9.820;2023-08-30T04:59:19;3.42;;;3.15;;
40595;SDS011;26304;48.794;9.820;2023-08-30T05:01:41;3.25;;;2.90;;
40595;SDS011;26304;48.794;9.820;2023-08-30T05:04:05;3.30;;;3.10;;
40595;SDS011;26304;48.794;9.820;2023-08-30T05:06:29;3.75;;;3.45;;
40595;SDS011;26304;48.794;9.820;2023-08-30T05:08:52;3.15;;;2.95;;
40595;SDS011;26304;48.794;9.820;2023-08-30T05:11:14;2.83;;;2.63;;
40595;SDS011;26304;48.794;9.820;2023-08-30T05:13:37;3.63;;;2.90;;
40595;SDS011;26304;48.794;9.820;2023-08-30T05:15:59;3.58;;;3.25;;
40595;SDS011;26304;48.794;9.820;2023-08-30T05:18:22;3.92;;;3.53;;
40595;SDS011;26304;48.794;9.820;2023-08-30T05:20:44;3.63;;;3.33;;
40595;SDS011;26304;48.794;9.820;2023-08-30T05:23:08;5.88;;;3.80;;
40595;SDS011;26304;48.794;9.820;2023-08-30T05:25:30;4.60;;;3.90;;
40595;SDS011;26304;48.794;9.820;2023-08-30T05:27:53;3.92;;;3.40;;
40595;SDS011;26304;48.794;9.820;2023-08-30T05:30:15;7.35;;;3.63;;
40595;SDS011;26304;48.794;9.820;2023-08-30T05:32:38;6.20;;;3.47;;
40595;SDS011;26304;48.794;9.820;2023-08-30T05:35:00;4.18;;;3.70;;
40595;SDS011;26304;48.794;9.820;2023-08-30T05:37:23;4.55;;;3.10;;
40595;SDS011;26304;48.794;9.820;2023-08-30T05:39:46;3.95;;;3.53;;
40595;SDS011;26304;48.794;9.820;2023-08-30T05:42:09;4.00;;;3.70;;
40595;SDS011;26304;48.794;9.820;2023-08-30T05:44:31;5.60;;;3.20;;
40595;SDS011;26304;48.794;9.820;2023-08-30T05:46:54;6.47;;;3.95;;
40595;SDS011;26304;48.794;9.820;2023-08-30T05:49:16;3.85;;;3.53;;
40595;SDS011;26304;48.794;9.820;2023-08-30T05:51:38;3.83;;;2.92;;
40595;SDS011;26304;48.794;9.820;2023-08-30T05:54:01;3.15;;;2.95;;
40595;SDS011;26304;48.794;9.820;2023-08-30T05:56:25;3.30;;;3.00;;
40595;SDS011;26304;48.794;9.820;2023-08-30T05:58:47;3.60;;;3.13;;
40595;SDS011;26304;48.794;9.820;2023-08-30T06:01:10;4.07;;;2.72;;
40595;SDS011;26304;48.794;9.820;2023-08-30T06:03:33;3.22;;;3.00;;
40595;SDS011;26304;48.794;9.820;2023-08-30T06:05:56;2.55;;;2.45;;
40595;SDS011;26304;48.794;9.820;2023-08-30T06:08:18;3.78;;;3.15;;
40595;SDS011;26304;48.794;9.820;2023-08-30T06:10:40;3.20;;;2.90;;
40595;SDS011;26304;48.794;9.820;2023-08-30T06:13:04;2.97;;;2.67;;
40595;SDS011;26304;48.794;9.820;2023-08-30T06:15:27;2.95;;;2.75;;
40595;SDS011;26304;48.794;9.820;2023-08-30T06:17:49;2.80;;;2.60;;
40595;SDS011;26304;48.794;9.820;2023-08-30T06:20:11;2.75;;;2.55;;
40595;SDS011;26304;48.794;9.820;2023-08-30T06:22:34;3.55;;;2.30;;
40595;SDS011;26304;48.794;9.820;2023-08-30T06:24:57;3.30;;;3.00;;
40595;SDS011;26304;48.794;9.820;2023-08-30T06:27:19;3.13;;;2.50;;
40595;SDS011;26304;48.794;9.820;2023-08-30T06:29:43;3.03;;;2.72;;
40595;SDS011;26304;48.794;9.820;2023-08-30T06:32:05;2.65;;;2.55;;
40595;SDS011;26304;48.794;9.820;2023-08-30T06:34:28;3.30;;;2.97;;
40595;SDS011;26304;48.794;9.820;2023-08-30T06:36:51;2.92;;;2.72;;
40595;SDS011;26304;48.794;9.820;2023-08-30T06:39:13;2.88;;;2.67;;
40595;SDS011;26304;48.794;9.820;2023-08-30T06:41:35;3.03;;;2.72;;
40595;SDS011;26304;48.794;9.820;2023-08-30T06:43:58;2.50;;;2.30;;
40595;SDS011;26304;48.794;9.820;2023-08-30T06:46:22;2.80;;;2.60;;
40595;SDS011;26304;48.794;9.820;2023-08-30T06:48:44;2.72;;;2.53;;
40595;SDS011;26304;48.794;9.820;2023-08-30T06:51:06;2.65;;;2.40;;
40595;SDS011;26304;48.794;9.820;2023-08-30T06:53:29;2.78;;;2.63;;
40595;SDS011;26304;48.794;9.820;2023-08-30T06:55:56;2.95;;;2.75;;
40595;SDS011;26304;48.794;9.820;2023-08-30T06:58:19;2.53;;;2.33;;
40595;SDS011;26304;48.794;9.820;2023-08-30T07:00:41;2.60;;;2.50;;
40595;SDS011;26304;48.794;9.820;2023-08-30T07:03:05;2.67;;;2.47;;
40595;SDS011;26304;48.794;9.820;2023-08-30T07:05:27;2.38;;;2.28;;
40595;SDS011;26304;48.794;9.820;2023-08-30T07:07:50;2.67;;;2.47;;
40595;SDS011;26304;48.794;9.820;2023-08-30T07:10:12;2.72;;;2.60;;
40595;SDS011;26304;48.794;9.820;2023-08-30T07:12:35;2.70;;;2.50;;
40595;SDS011;26304;48.794;9.820;2023-08-30T07:14:57;2.60;;;2.40;;
40595;SDS011;26304;48.794;9.820;2023-08-30T07:17:20;2.42;;;2.22;;
40595;SDS011;26304;48.794;9.820;2023-08-30T07:19:43;2.50;;;2.40;;
40595;SDS011;26304;48.794;9.820;2023-08-30T07:22:06;2.40;;;2.30;;
40595;SDS011;26304;48.794;9.820;2023-08-30T07:24:28;2.60;;;2.40;;
40595;SDS011;26304;48.794;9.820;2023-08-30T07:26:50;2.50;;;2.40;;
40595;SDS011;26304;48.794;9.820;2023-08-30T07:29:13;2.45;;;2.35;;
40595;SDS011;26304;48.794;9.820;2023-08-30T07:31:35;2.30;;;2.20;;
40595;SDS011;26304;48.794;9.820;2023-08-30T07:33:58;2.47;;;2.30;;
40595;SDS011;26304;48.794;9.820;2023-08-30T07:36:25;2.30;;;2.20;;
40595;SDS011;26304;48.794;9.820;2023-08-30T07:38:47;2.38;;;2.25;;
40595;SDS011;26304;48.794;9.820;2023-08-30T07:41:10;2.20;;;2.10;;
40595;SDS011;26304;48.794;9.820;2023-08-30T07:43:32;2.55;;;2.35;;
40595;SDS011;26304;48.794;9.820;2023-08-30T07:45:54;2.10;;;2.00;;
40595;SDS011;26304;48.794;9.820;2023-08-30T07:48:18;2.25;;;2.05;;
40595;SDS011;26304;48.794;9.820;2023-08-30T07:50:40;2.40;;;2.20;;
40595;SDS011;26304;48.794;9.820;2023-08-30T07:53:04;2.20;;;2.10;;
40595;SDS011;26304;48.794;9.820;2023-08-30T07:55:27;2.60;;;2.50;;
40595;SDS011;26304;48.794;9.820;2023-08-30T07:57:49;2.42;;;2.22;;
40595;SDS011;26304;48.794;9.820;2023-08-30T08:00:12;2.10;;;2.00;;
40595;SDS011;26304;48.794;9.820;2023-08-30T08:02:35;2.30;;;2.20;;
40595;SDS011;26304;48.794;9.820;2023-08-30T08:04:57;2.50;;;2.40;;
40595;SDS011;26304;48.794;9.820;2023-08-30T08:07:20;2.17;;;2.08;;
40595;SDS011;26304;48.794;9.820;2023-08-30T08:09:43;1.98;;;1.88;;
40595;SDS011;26304;48.794;9.820;2023-08-30T08:12:06;2.10;;;2.00;;
40595;SDS011;26304;48.794;9.820;2023-08-30T08:14:29;2.10;;;2.00;;
40595;SDS011;26304;48.794;9.820;2023-08-30T08:16:51;2.22;;;2.13;;
40595;SDS011;26304;48.794;9.820;2023-08-30T08:19:14;2.20;;;2.08;;
40595;SDS011;26304;48.794;9.820;2023-08-30T08:21:36;2.13;;;2.03;;
40595;SDS011;26304;48.794;9.820;2023-08-30T08:23:59;2.20;;;2.10;;
40595;SDS011;26304;48.794;9.820;2023-08-30T08:26:23;2.10;;;2.00;;
40595;SDS011;26304;48.794;9.820;2023-08-30T08:28:46;2.30;;;2.20;;
40595;SDS011;26304;48.794;9.820;2023-08-30T08:31:08;2.28;;;2.17;;
40595;SDS011;26304;48.794;9.820;2023-08-30T08:33:31;2.55;;;2.38;;
40595;SDS011;26304;48.794;9.820;2023-08-30T08:35:53;2.20;;;2.10;;
40595;SDS011;26304;48.794;9.820;2023-08-30T08:38:15;2.20;;;2.00;;
40595;SDS011;26304;48.794;9.820;2023-08-30T08:40:38;2.30;;;2.10;;
40595;SDS011;26304;48.794;9.820;2023-08-30T08:43:02;2.20;;;2.10;;
40595;SDS011;26304;48.794;9.820;2023-08-30T08:45:25;2.15;;;2.05;;
40595;SDS011;26304;48.794;9.820;2023-08-30T08:47:48;1.92;;;1.83;;
40595;SDS011;26304;48.794;9.820;2023-08-30T08:50:11;2.00;;;1.90;;
40595;SDS011;26304;48.794;9.820;2023-08-30T08:52:33;2.47;;;2.28;;
40595;SDS011;26304;48.794;9.820;2023-08-30T08:54:56;2.10;;;1.90;;
40595;SDS011;26304;48.794;9.820;2023-08-30T08:57:20;1.60;;;1.50;;
40595;SDS011;26304;48.794;9.820;2023-08-30T08:59:44;2.10;;;2.00;;
40595;SDS011;26304;48.794;9.820;2023-08-30T09:02:07;1.95;;;1.85;;
40595;SDS011;26304;48.794;9.820;2023-08-30T09:04:32;1.90;;;1.80;;
40595;SDS011;26304;48.794;9.820;2023-08-30T09:06:54;2.05;;;1.95;;
40595;SDS011;26304;48.794;9.820;2023-08-30T09:09:17;1.80;;;1.70;;
40595;SDS011;26304;48.794;9.820;2023-08-30T09:11:39;2.20;;;2.10;;
40595;SDS011;26304;48.794;9.820;2023-08-30T09:14:02;1.77;;;1.67;;
40595;SDS011;26304;48.794;9.820;2023-08-30T09:16:26;1.92;;;1.83;;
40595;SDS011;26304;48.794;9.820;2023-08-30T09:18:56;2.03;;;1.92;;
40595;SDS011;26304;48.794;9.820;2023-08-30T09:21:19;1.60;;;1.50;;
40595;SDS011;26304;48.794;9.820;2023-08-30T09:23:42;1.80;;;1.70;;
40595;SDS011;26304;48.794;9.820;2023-08-30T09:26:04;2.08;;;1.98;;
40595;SDS011;26304;48.794;9.820;2023-08-30T09:28:27;1.63;;;1.52;;
40595;SDS011;26304;48.794;9.820;2023-08-30T09:30:49;2.10;;;2.00;;
40595;SDS011;26304;48.794;9.820;2023-08-30T09:33:13;1.65;;;1.55;;
40595;SDS011;26304;48.794;9.820;2023-08-30T09:35:45;1.48;;;1.48;;
40595;SDS011;26304;48.794;9.820;2023-08-30T09:38:07;1.73;;;1.63;;
40595;SDS011;26304;48.794;9.820;2023-08-30T09:40:38;1.83;;;1.73;;
40595;SDS011;26304;48.794;9.820;2023-08-30T09:43:01;1.80;;;1.70;;
40595;SDS011;26304;48.794;9.820;2023-08-30T09:45:23;1.80;;;1.70;;
40595;SDS011;26304;48.794;9.820;2023-08-30T09:47:46;2.35;;;2.00;;
40595;SDS011;26304;48.794;9.820;2023-08-30T09:50:11;1.80;;;1.70;;
40595;SDS011;26304;48.794;9.820;2023-08-30T09:52:34;1.67;;;1.58;;
40595;SDS011;26304;48.794;9.820;2023-08-30T09:54:58;2.13;;;1.92;;
40595;SDS011;26304;48.794;9.820;2023-08-30T09:57:21;2.65;;;1.80;;
40595;SDS011;26304;48.794;9.820;2023-08-30T09:59:44;1.67;;;1.58;;
40595;SDS011;26304;48.794;9.820;2023-08-30T10:02:08;2.10;;;1.90;;
40595;SDS011;26304;48.794;9.820;2023-08-30T10:04:31;1.80;;;1.70;;
40595;SDS011;26304;48.794;9.820;2023-08-30T10:06:55;1.70;;;1.60;;
40595;SDS011;26304;48.794;9.820;2023-08-30T10:09:18;1.80;;;1.70;;
40595;SDS011;26304;48.794;9.820;2023-08-30T10:11:41;1.75;;;1.65;;
40595;SDS011;26304;48.794;9.820;2023-08-30T10:14:06;1.80;;;1.60;;
40595;SDS011;26304;48.794;9.820;2023-08-30T10:16:30;2.20;;;2.05;;
40595;SDS011;26304;48.794;9.820;2023-08-30T10:19:00;3.65;;;2.10;;
40595;SDS011;26304;48.794;9.820;2023-08-30T10:21:25;1.75;;;1.65;;
40595;SDS011;26304;48.794;9.820;2023-08-30T10:23:50;3.28;;;2.00;;
40595;SDS011;26304;48.794;9.820;2023-08-30T10:26:16;2.53;;;1.90;;
40595;SDS011;26304;48.794;9.820;2023-08-30T10:28:41;2.95;;;2.13;;
40595;SDS011;26304;48.794;9.820;2023-08-30T10:31:05;2.95;;;1.70;;
40595;SDS011;26304;48.794;9.820;2023-08-30T10:33:29;3.60;;;2.05;;
40595;SDS011;26304;48.794;9.820;2023-08-30T10:35:51;2.13;;;1.90;;
40595;SDS011;26304;48.794;9.820;2023-08-30T10:38:24;1.83;;;1.73;;
40595;SDS011;26304;48.794;9.820;2023-08-30T10:40:49;3.33;;;2.10;;
40595;SDS011;26304;48.794;9.820;2023-08-30T10:43:11;2.67;;;1.90;;
40595;SDS011;26304;48.794;9.820;2023-08-30T10:45:34;5.68;;;3.55;;
40595;SDS011;26304;48.794;9.820;2023-08-30T10:47:56;5.25;;;3.83;;
40595;SDS011;26304;48.794;9.820;2023-08-30T10:50:26;5.07;;;3.10;;
40595;SDS011;26304;48.794;9.820;2023-08-30T10:52:54;5.30;;;2.65;;
40595;SDS011;26304;48.794;9.820;2023-08-30T10:55:17;3.03;;;2.65;;
40595;SDS011;26304;48.794;9.820;2023-08-30T10:57:45;3.72;;;2.65;;
40595;SDS011;26304;48.794;9.820;2023-08-30T11:00:08;2.55;;;2.22;;
40595;SDS011;26304;48.794;9.820;2023-08-30T11:02:32;4.55;;;2.28;;
40595;SDS011;26304;48.794;9.820;2023-08-30T11:04:54;3.35;;;2.33;;
40595;SDS011;26304;48.794;9.820;2023-08-30T11:07:19;3.42;;;2.08;;
40595;SDS011;26304;48.794;9.820;2023-08-30T11:09:41;2.97;;;2.10;;
40595;SDS011;26304;48.794;9.820;2023-08-30T11:12:04;3.45;;;2.20;;
40595;SDS011;26304;48.794;9.820;2023-08-30T11:14:28;2.97;;;2.10;;
40595;SDS011;26304;48.794;9.820;2023-08-30T11:16:51;2.42;;;2.22;;
40595;SDS011;26304;48.794;9.820;2023-08-30T11:19:13;2.20;;;2.00;;
40595;SDS011;26304;48.794;9.820;2023-08-30T11:21:36;3.70;;;2.33;;
40595;SDS011;26304;48.794;9.820;2023-08-30T11:24:00;2.30;;;1.92;;
40595;SDS011;26304;48.794;9.820;2023-08-30T11:26:22;1.70;;;1.60;;
40595;SDS011;26304;48.794;9.820;2023-08-30T11:28:45;2.55;;;1.63;;
40595;SDS011;26304;48.794;9.820;2023-08-30T11:31:10;2.03;;;1.92;;
40595;SDS011;26304;48.794;9.820;2023-08-30T11:33:39;3.97;;;2.10;;
40595;SDS011;26304;48.794;9.820;2023-08-30T11:36:01;2.63;;;1.70;;
40595;SDS011;26304;48.794;9.820;2023-08-30T11:38:24;1.92;;;1.75;;
40595;SDS011;26304;48.794;9.820;2023-08-30T11:40:48;2.95;;;2.00;;
40595;SDS011;26304;48.794;9.820;2023-08-30T11:43:12;2.30;;;2.17;;
40595;SDS011;26304;48.794;9.820;2023-08-30T11:45:34;2.15;;;1.58;;
40595;SDS011;26304;48.794;9.820;2023-08-30T11:47:58;2.25;;;1.85;;
40595;SDS011;26304;48.794;9.820;2023-08-30T11:50:21;1.85;;;1.75;;
40595;SDS011;26304;48.794;9.820;2023-08-30T11:52:43;2.58;;;1.83;;
40595;SDS011;26304;48.794;9.820;2023-08-30T11:55:06;1.77;;;1.67;;
40595;SDS011;26304;48.794;9.820;2023-08-30T11:57:32;1.88;;;1.75;;
40595;SDS011;26304;48.794;9.820;2023-08-30T11:59:55;1.63;;;1.52;;
40595;SDS011;26304;48.794;9.820;2023-08-30T12:02:18;1.50;;;1.48;;
40595;SDS011;26304;48.794;9.820;2023-08-30T12:04:43;2.22;;;2.03;;
40595;SDS011;26304;48.794;9.820;2023-08-30T12:07:07;1.95;;;1.85;;
40595;SDS011;26304;48.794;9.820;2023-08-30T12:09:30;1.52;;;1.38;;
40595;SDS011;26304;48.794;9.820;2023-08-30T12:11:52;2.00;;;1.77;;
40595;SDS011;26304;48.794;9.820;2023-08-30T12:14:15;1.95;;;1.85;;
40595;SDS011;26304;48.794;9.820;2023-08-30T12:16:37;1.80;;;1.70;;
40595;SDS011;26304;48.794;9.820;2023-08-30T12:19:08;1.77;;;1.60;;
40595;SDS011;26304;48.794;9.820;2023-08-30T12:21:32;2.00;;;1.90;;
40595;SDS011;26304;48.794;9.820;2023-08-30T12:24:01;2.40;;;2.15;;
40595;SDS011;26304;48.794;9.820;2023-08-30T12:26:30;2.55;;;1.77;;
40595;SDS011;26304;48.794;9.820;2023-08-30T12:28:54;1.83;;;1.73;;
40595;SDS011;26304;48.794;9.820;2023-08-30T12:31:16;1.80;;;1.70;;
40595;SDS011;26304;48.794;9.820;2023-08-30T12:33:41;3.88;;;1.90;;
40595;SDS011;26304;48.794;9.820;2023-08-30T12:36:03;3.65;;;1.70;;
40595;SDS011;26304;48.794;9.820;2023-08-30T12:38:27;2.30;;;1.88;;
40595;SDS011;26304;48.794;9.820;2023-08-30T12:40:50;2.78;;;1.88;;
40595;SDS011;26304;48.794;9.820;2023-08-30T12:43:13;3.42;;;1.77;;
40595;SDS011;26304;48.794;9.820;2023-08-30T12:45:36;4.28;;;1.88;;
40595;SDS011;26304;48.794;9.820;2023-08-30T12:47:59;1.83;;;1.70;;
40595;SDS011;26304;48.794;9.820;2023-08-30T12:50:21;1.80;;;1.70;;
40595;SDS011;26304;48.794;9.820;2023-08-30T12:52:44;2.15;;;1.83;;
40595;SDS011;26304;48.794;9.820;2023-08-30T12:55:08;1.80;;;1.67;;
40595;SDS011;26304;48.794;9.820;2023-08-30T12:57:30;2.30;;;2.10;;
40595;SDS011;26304;48.794;9.820;2023-08-30T12:59:53;2.00;;;1.80;;
40595;SDS011;26304;48.794;9.820;2023-08-30T13:02:15;1.65;;;1.55;;
40595;SDS011;26304;48.794;9.820;2023-08-30T13:04:38;1.70;;;1.60;;
40595;SDS011;26304;48.794;9.820;2023-08-30T13:07:00;2.80;;;1.77;;
40595;SDS011;26304;48.794;9.820;2023-08-30T13:09:23;3.65;;;2.00;;
40595;SDS011;26304;48.794;9.820;2023-08-30T13:11:47;1.80;;;1.70;;
40595;SDS011;26304;48.794;9.820;2023-08-30T13:14:09;1.77;;;1.67;;
40595;SDS011;26304;48.794;9.820;2023-08-30T13:16:32;1.95;;;1.75;;
40595;SDS011;26304;48.794;9.820;2023-08-30T13:18:54;2.83;;;2.10;;
40595;SDS011;26304;48.794;9.820;2023-08-30T13:21:17;2.75;;;1.90;;
40595;SDS011;26304;48.794;9.820;2023-08-30T13:23:39;1.85;;;1.50;;
40595;SDS011;26304;48.794;9.820;2023-08-30T13:26:01;1.60;;;1.50;;
40595;SDS011;26304;48.794;9.820;2023-08-30T13:28:25;1.83;;;1.42;;
40595;SDS011;26304;48.794;9.820;2023-08-30T13:30:48;4.82;;;1.80;;
40595;SDS011;26304;48.794;9.820;2023-08-30T13:33:12;1.65;;;1.55;;
40595;SDS011;26304;48.794;9.820;2023-08-30T13:35:34;1.60;;;1.50;;
40595;SDS011;26304;48.794;9.820;2023-08-30T13:37:57;2.00;;;1.80;;
40595;SDS011;26304;48.794;9.820;2023-08-30T13:40:19;1.80;;;1.70;;
40595;SDS011;26304;48.794;9.820;2023-08-30T13:42:41;2.13;;;1.50;;
40595;SDS011;26304;48.794;9.820;2023-08-30T13:45:06;1.92;;;1.77;;
40595;SDS011;26304;48.794;9.820;2023-08-30T13:47:30;1.73;;;1.63;;
40595;SDS011;26304;48.794;9.820;2023-08-30T13:49:52;2.58;;;1.42;;
40595;SDS011;26304;48.794;9.820;2023-08-30T13:52:15;1.80;;;1.70;;
40595;SDS011;26304;48.794;9.820;2023-08-30T13:54:37;1.52;;;1.42;;
40595;SDS011;26304;48.794;9.820;2023-08-30T13:57:00;1.70;;;1.60;;
40595;SDS011;26304;48.794;9.820;2023-08-30T13:59:22;1.70;;;1.60;;
40595;SDS011;26304;48.794;9.820;2023-08-30T14:01:46;1.50;;;1.40;;
40595;SDS011;26304;48.794;9.820;2023-08-30T14:04:08;2.40;;;1.70;;
40595;SDS011;26304;48.794;9.820;2023-08-30T14:06:31;1.58;;;1.45;;
40595;SDS011;26304;48.794;9.820;2023-08-30T14:08:54;1.70;;;1.60;;
40595;SDS011;26304;48.794;9.820;2023-08-30T14:11:16;1.90;;;1.80;;
40595;SDS011;26304;48.794;9.820;2023-08-30T14:13:38;1.65;;;1.40;;
40595;SDS011;26304;48.794;9.820;2023-08-30T14:16:01;2.00;;;1.63;;
40595;SDS011;26304;48.794;9.820;2023-08-30T14:18:26;1.85;;;1.50;;
40595;SDS011;26304;48.794;9.820;2023-08-30T14:20:48;2.08;;;1.48;;
40595;SDS011;26304;48.794;9.820;2023-08-30T14:23:10;1.50;;;1.40;;
40595;SDS011;26304;48.794;9.820;2023-08-30T14:25:33;1.60;;;1.50;;